sensor_id;sensor_type;location;lat;lon;timestamp;P1;durP1;ratioP1;P2;durP2;ratioP2
71836;SDS011;59686;51.716;7.016;2022-10-16T00:00:56;4.70;;;3.67;;
71836;SDS011;59686;51.716;7.016;2022-10-16T00:03:25;4.63;;;3.92;;
71836;SDS011;59686;51.716;7.016;2022-10-16T00:05:51;6.15;;;3.60;;
71836;SDS011;59686;51.716;7.016;2022-10-16T00:08:16;5.63;;;3.90;;
71836;SDS011;59686;51.716;7.016;2022-10-16T00:10:42;5.63;;;3.78;;
71836;SDS011;59686;51.716;7.016;2022-10-16T00:13:07;4.22;;;3.63;;
71836;SDS011;59686;51.716;7.016;2022-10-16T00:15:34;4.70;;;3.72;;
71836;SDS011;59686;51.716;7.016;2022-10-16T00:20:39;6.53;;;4.10;;
71836;SDS011;59686;51.716;7.016;2022-10-16T00:23:05;5.28;;;4.13;;
71836;SDS011;59686;51.716;7.016;2022-10-16T00:25:31;5.47;;;4.07;;
71836;SDS011;59686;51.716;7.016;2022-10-16T00:28:01;5.68;;;3.72;;
71836;SDS011;59686;51.716;7.016;2022-10-16T00:30:27;4.18;;;3.78;;
71836;SDS011;59686;51.716;7.016;2022-10-16T00:32:54;4.32;;;3.92;;
71836;SDS011;59686;51.716;7.016;2022-10-16T00:35:21;4.28;;;3.55;;
71836;SDS011;59686;51.716;7.016;2022-10-16T00:37:46;5.47;;;4.13;;
71836;SDS011;59686;51.716;7.016;2022-10-16T00:40:12;4.53;;;3.65;;
71836;SDS011;59686;51.716;7.016;2022-10-16T00:42:38;4.65;;;3.67;;
71836;SDS011;59686;51.716;7.016;2022-10-16T00:45:04;3.50;;;3.20;;
71836;SDS011;59686;51.716;7.016;2022-10-16T00:47:43;4.55;;;3.50;;
71836;SDS011;59686;51.716;7.016;2022-10-16T00:50:27;4.38;;;3.83;;
71836;SDS011;59686;51.716;7.016;2022-10-16T00:52:55;5.05;;;3.80;;
71836;SDS011;59686;51.716;7.016;2022-10-16T00:55:22;4.50;;;3.38;;
71836;SDS011;59686;51.716;7.016;2022-10-16T00:57:49;4.75;;;3.60;;
71836;SDS011;59686;51.716;7.016;2022-10-16T01:00:18;4.47;;;3.28;;
71836;SDS011;59686;51.716;7.016;2022-10-16T01:02:51;4.38;;;3.97;;
71836;SDS011;59686;51.716;7.016;2022-10-16T01:05:18;4.53;;;3.60;;
71836;SDS011;59686;51.716;7.016;2022-10-16T01:11:12;6.10;;;3.20;;
71836;SDS011;59686;51.716;7.016;2022-10-16T01:13:48;4.97;;;3.60;;
71836;SDS011;59686;51.716;7.016;2022-10-16T01:16:27;4.20;;;3.30;;
71836;SDS011;59686;51.716;7.016;2022-10-16T01:19:09;4.75;;;3.38;;
71836;SDS011;59686;51.716;7.016;2022-10-16T01:21:42;3.55;;;3.08;;
71836;SDS011;59686;51.716;7.016;2022-10-16T01:27:07;4.43;;;3.50;;
71836;SDS011;59686;51.716;7.016;2022-10-16T01:32:31;4.13;;;3.08;;
71836;SDS011;59686;51.716;7.016;2022-10-16T01:35:00;4.28;;;3.38;;
71836;SDS011;59686;51.716;7.016;2022-10-16T01:37:46;3.88;;;3.15;;
71836;SDS011;59686;51.716;7.016;2022-10-16T01:40:19;3.97;;;3.10;;
71836;SDS011;59686;51.716;7.016;2022-10-16T01:43:22;4.47;;;2.90;;
71836;SDS011;59686;51.716;7.016;2022-10-16T01:45:44;3.90;;;3.10;;
71836;SDS011;59686;51.716;7.016;2022-10-16T01:48:14;3.83;;;3.30;;
71836;SDS011;59686;51.716;7.016;2022-10-16T01:50:44;3.28;;;2.92;;
71836;SDS011;59686;51.716;7.016;2022-10-16T01:53:14;3.17;;;2.88;;
71836;SDS011;59686;51.716;7.016;2022-10-16T01:55:43;5.05;;;3.42;;
71836;SDS011;59686;51.716;7.016;2022-10-16T01:58:12;4.93;;;3.10;;
71836;SDS011;59686;51.716;7.016;2022-10-16T02:00:45;4.82;;;3.20;;
71836;SDS011;59686;51.716;7.016;2022-10-16T02:03:13;3.60;;;3.20;;
71836;SDS011;59686;51.716;7.016;2022-10-16T02:05:47;4.32;;;3.05;;
71836;SDS011;59686;51.716;7.016;2022-10-16T02:08:14;3.80;;;2.67;;
71836;SDS011;59686;51.716;7.016;2022-10-16T02:10:40;3.72;;;2.75;;
71836;SDS011;59686;51.716;7.016;2022-10-16T02:13:08;3.47;;;2.80;;
71836;SDS011;59686;51.716;7.016;2022-10-16T02:15:37;2.97;;;2.67;;
71836;SDS011;59686;51.716;7.016;2022-10-16T02:18:06;2.70;;;2.38;;
71836;SDS011;59686;51.716;7.016;2022-10-16T02:20:39;4.40;;;2.72;;
71836;SDS011;59686;51.716;7.016;2022-10-16T02:23:14;4.93;;;2.80;;
71836;SDS011;59686;51.716;7.016;2022-10-16T02:25:45;4.00;;;3.03;;
71836;SDS011;59686;51.716;7.016;2022-10-16T02:28:15;3.53;;;2.80;;
71836;SDS011;59686;51.716;7.016;2022-10-16T02:30:51;4.40;;;2.70;;
71836;SDS011;59686;51.716;7.016;2022-10-16T02:33:26;4.63;;;2.83;;
71836;SDS011;59686;51.716;7.016;2022-10-16T02:35:54;2.65;;;2.42;;
71836;SDS011;59686;51.716;7.016;2022-10-16T02:38:21;3.33;;;2.55;;
71836;SDS011;59686;51.716;7.016;2022-10-16T02:40:48;2.75;;;2.55;;
71836;SDS011;59686;51.716;7.016;2022-10-16T02:43:14;3.10;;;2.80;;
71836;SDS011;59686;51.716;7.016;2022-10-16T02:45:50;3.05;;;2.75;;
71836;SDS011;59686;51.716;7.016;2022-10-16T02:48:16;2.88;;;2.35;;
71836;SDS011;59686;51.716;7.016;2022-10-16T02:50:41;3.50;;;2.50;;
71836;SDS011;59686;51.716;7.016;2022-10-16T02:53:07;3.22;;;2.53;;
71836;SDS011;59686;51.716;7.016;2022-10-16T02:55:33;3.92;;;2.85;;
71836;SDS011;59686;51.716;7.016;2022-10-16T02:57:58;3.88;;;2.70;;
71836;SDS011;59686;51.716;7.016;2022-10-16T03:00:24;3.05;;;2.60;;
71836;SDS011;59686;51.716;7.016;2022-10-16T03:02:50;3.38;;;2.42;;
71836;SDS011;59686;51.716;7.016;2022-10-16T03:05:15;3.58;;;2.50;;
71836;SDS011;59686;51.716;7.016;2022-10-16T03:07:41;3.22;;;2.67;;
71836;SDS011;59686;51.716;7.016;2022-10-16T03:10:07;4.57;;;2.63;;
71836;SDS011;59686;51.716;7.016;2022-10-16T03:12:33;4.05;;;2.42;;
71836;SDS011;59686;51.716;7.016;2022-10-16T03:14:59;4.15;;;2.40;;
71836;SDS011;59686;51.716;7.016;2022-10-16T03:17:25;3.53;;;2.42;;
71836;SDS011;59686;51.716;7.016;2022-10-16T03:19:50;4.18;;;2.30;;
71836;SDS011;59686;51.716;7.016;2022-10-16T03:22:16;2.97;;;2.42;;
71836;SDS011;59686;51.716;7.016;2022-10-16T03:24:42;3.40;;;2.25;;
71836;SDS011;59686;51.716;7.016;2022-10-16T03:27:08;3.42;;;2.40;;
71836;SDS011;59686;51.716;7.016;2022-10-16T03:29:33;3.15;;;2.45;;
71836;SDS011;59686;51.716;7.016;2022-10-16T03:32:02;4.25;;;2.40;;
71836;SDS011;59686;51.716;7.016;2022-10-16T03:34:28;2.63;;;2.30;;
71836;SDS011;59686;51.716;7.016;2022-10-16T03:36:56;2.70;;;2.47;;
71836;SDS011;59686;51.716;7.016;2022-10-16T03:39:21;3.28;;;2.20;;
71836;SDS011;59686;51.716;7.016;2022-10-16T03:41:47;2.88;;;2.40;;
71836;SDS011;59686;51.716;7.016;2022-10-16T03:44:13;3.60;;;2.25;;
71836;SDS011;59686;51.716;7.016;2022-10-16T03:46:39;2.95;;;2.13;;
71836;SDS011;59686;51.716;7.016;2022-10-16T03:49:05;2.72;;;2.10;;
71836;SDS011;59686;51.716;7.016;2022-10-16T03:51:30;3.17;;;2.30;;
71836;SDS011;59686;51.716;7.016;2022-10-16T03:53:56;4.53;;;2.30;;
71836;SDS011;59686;51.716;7.016;2022-10-16T03:56:22;5.30;;;2.08;;
71836;SDS011;59686;51.716;7.016;2022-10-16T03:58:47;5.97;;;2.30;;
71836;SDS011;59686;51.716;7.016;2022-10-16T04:01:13;2.50;;;1.88;;
71836;SDS011;59686;51.716;7.016;2022-10-16T04:03:39;3.17;;;2.08;;
71836;SDS011;59686;51.716;7.016;2022-10-16T04:06:04;2.92;;;2.00;;
71836;SDS011;59686;51.716;7.016;2022-10-16T04:08:30;3.17;;;1.85;;
71836;SDS011;59686;51.716;7.016;2022-10-16T04:10:59;2.90;;;2.25;;
71836;SDS011;59686;51.716;7.016;2022-10-16T04:13:24;4.72;;;2.30;;
71836;SDS011;59686;51.716;7.016;2022-10-16T04:15:50;3.58;;;1.80;;
71836;SDS011;59686;51.716;7.016;2022-10-16T04:18:16;2.53;;;2.15;;
71836;SDS011;59686;51.716;7.016;2022-10-16T04:20:41;2.15;;;1.80;;
71836;SDS011;59686;51.716;7.016;2022-10-16T04:23:07;2.92;;;2.05;;
71836;SDS011;59686;51.716;7.016;2022-10-16T04:25:32;1.63;;;1.40;;
71836;SDS011;59686;51.716;7.016;2022-10-16T04:27:58;2.30;;;1.90;;
71836;SDS011;59686;51.716;7.016;2022-10-16T04:30:24;1.85;;;1.45;;
71836;SDS011;59686;51.716;7.016;2022-10-16T04:32:50;3.58;;;1.80;;
71836;SDS011;59686;51.716;7.016;2022-10-16T04:35:20;2.63;;;1.80;;
71836;SDS011;59686;51.716;7.016;2022-10-16T04:37:46;2.38;;;1.88;;
71836;SDS011;59686;51.716;7.016;2022-10-16T04:40:12;2.83;;;1.73;;
71836;SDS011;59686;51.716;7.016;2022-10-16T04:42:47;3.00;;;1.77;;
71836;SDS011;59686;51.716;7.016;2022-10-16T04:45:12;4.07;;;1.60;;
71836;SDS011;59686;51.716;7.016;2022-10-16T04:47:38;3.42;;;1.48;;
71836;SDS011;59686;51.716;7.016;2022-10-16T04:50:04;3.85;;;1.73;;
71836;SDS011;59686;51.716;7.016;2022-10-16T04:52:29;2.22;;;1.60;;
71836;SDS011;59686;51.716;7.016;2022-10-16T04:54:56;1.75;;;1.50;;
71836;SDS011;59686;51.716;7.016;2022-10-16T04:57:26;1.50;;;1.40;;
71836;SDS011;59686;51.716;7.016;2022-10-16T04:59:52;2.05;;;1.50;;
71836;SDS011;59686;51.716;7.016;2022-10-16T05:02:18;2.97;;;1.77;;
71836;SDS011;59686;51.716;7.016;2022-10-16T05:04:47;2.30;;;1.50;;
71836;SDS011;59686;51.716;7.016;2022-10-16T05:07:13;4.65;;;1.63;;
71836;SDS011;59686;51.716;7.016;2022-10-16T05:09:39;2.88;;;1.50;;
71836;SDS011;59686;51.716;7.016;2022-10-16T05:12:04;3.75;;;1.70;;
71836;SDS011;59686;51.716;7.016;2022-10-16T05:14:30;2.00;;;1.80;;
71836;SDS011;59686;51.716;7.016;2022-10-16T05:16:56;1.95;;;1.42;;
71836;SDS011;59686;51.716;7.016;2022-10-16T05:19:22;1.67;;;1.30;;
71836;SDS011;59686;51.716;7.016;2022-10-16T05:21:48;2.55;;;1.63;;
71836;SDS011;59686;51.716;7.016;2022-10-16T05:24:13;2.17;;;1.70;;
71836;SDS011;59686;51.716;7.016;2022-10-16T05:26:39;2.10;;;1.50;;
71836;SDS011;59686;51.716;7.016;2022-10-16T05:29:04;1.95;;;1.60;;
71836;SDS011;59686;51.716;7.016;2022-10-16T05:31:30;2.45;;;1.58;;
71836;SDS011;59686;51.716;7.016;2022-10-16T05:33:59;2.95;;;1.63;;
71836;SDS011;59686;51.716;7.016;2022-10-16T05:36:25;2.50;;;1.40;;
71836;SDS011;59686;51.716;7.016;2022-10-16T05:38:51;1.85;;;1.60;;
71836;SDS011;59686;51.716;7.016;2022-10-16T05:41:17;3.00;;;1.67;;
71836;SDS011;59686;51.716;7.016;2022-10-16T05:43:46;1.90;;;1.70;;
71836;SDS011;59686;51.716;7.016;2022-10-16T05:46:15;3.08;;;1.75;;
71836;SDS011;59686;51.716;7.016;2022-10-16T05:48:41;2.35;;;1.65;;
71836;SDS011;59686;51.716;7.016;2022-10-16T05:51:09;2.30;;;1.73;;
71836;SDS011;59686;51.716;7.016;2022-10-16T05:53:37;2.40;;;1.70;;
71836;SDS011;59686;51.716;7.016;2022-10-16T05:56:04;2.58;;;1.77;;
71836;SDS011;59686;51.716;7.016;2022-10-16T05:58:31;3.45;;;1.70;;
71836;SDS011;59686;51.716;7.016;2022-10-16T06:01:00;1.75;;;1.65;;
71836;SDS011;59686;51.716;7.016;2022-10-16T06:03:27;5.20;;;2.22;;
71836;SDS011;59686;51.716;7.016;2022-10-16T06:05:53;1.80;;;1.63;;
71836;SDS011;59686;51.716;7.016;2022-10-16T06:08:20;1.73;;;1.60;;
71836;SDS011;59686;51.716;7.016;2022-10-16T06:10:46;2.33;;;1.65;;
71836;SDS011;59686;51.716;7.016;2022-10-16T06:13:12;2.13;;;1.55;;
71836;SDS011;59686;51.716;7.016;2022-10-16T06:15:39;2.17;;;1.52;;
71836;SDS011;59686;51.716;7.016;2022-10-16T06:18:10;2.05;;;1.70;;
71836;SDS011;59686;51.716;7.016;2022-10-16T06:20:36;3.50;;;1.45;;
71836;SDS011;59686;51.716;7.016;2022-10-16T06:23:02;3.42;;;1.65;;
71836;SDS011;59686;51.716;7.016;2022-10-16T06:25:29;3.45;;;1.73;;
71836;SDS011;59686;51.716;7.016;2022-10-16T06:27:56;2.80;;;1.80;;
71836;SDS011;59686;51.716;7.016;2022-10-16T06:30:21;3.28;;;1.50;;
71836;SDS011;59686;51.716;7.016;2022-10-16T06:32:47;3.00;;;1.92;;
71836;SDS011;59686;51.716;7.016;2022-10-16T06:35:13;2.88;;;1.58;;
71836;SDS011;59686;51.716;7.016;2022-10-16T06:37:38;2.67;;;1.70;;
71836;SDS011;59686;51.716;7.016;2022-10-16T06:40:04;2.85;;;2.00;;
71836;SDS011;59686;51.716;7.016;2022-10-16T06:42:30;2.83;;;1.70;;
71836;SDS011;59686;51.716;7.016;2022-10-16T06:44:56;4.00;;;1.80;;
71836;SDS011;59686;51.716;7.016;2022-10-16T06:47:22;3.33;;;1.80;;
71836;SDS011;59686;51.716;7.016;2022-10-16T06:49:48;3.28;;;1.85;;
71836;SDS011;59686;51.716;7.016;2022-10-16T06:52:14;2.08;;;1.70;;
71836;SDS011;59686;51.716;7.016;2022-10-16T06:54:40;2.63;;;1.73;;
71836;SDS011;59686;51.716;7.016;2022-10-16T06:57:05;2.63;;;1.73;;
71836;SDS011;59686;51.716;7.016;2022-10-16T06:59:31;3.25;;;1.63;;
71836;SDS011;59686;51.716;7.016;2022-10-16T07:01:56;3.00;;;1.65;;
71836;SDS011;59686;51.716;7.016;2022-10-16T07:04:22;3.25;;;1.60;;
71836;SDS011;59686;51.716;7.016;2022-10-16T07:06:48;2.38;;;1.67;;
71836;SDS011;59686;51.716;7.016;2022-10-16T07:09:13;3.15;;;1.60;;
71836;SDS011;59686;51.716;7.016;2022-10-16T07:11:39;2.15;;;1.48;;
71836;SDS011;59686;51.716;7.016;2022-10-16T07:14:12;3.03;;;1.90;;
71836;SDS011;59686;51.716;7.016;2022-10-16T07:16:42;3.10;;;1.60;;
71836;SDS011;59686;51.716;7.016;2022-10-16T07:19:08;1.60;;;1.50;;
71836;SDS011;59686;51.716;7.016;2022-10-16T07:21:34;2.20;;;1.50;;
71836;SDS011;59686;51.716;7.016;2022-10-16T07:24:03;2.67;;;1.90;;
71836;SDS011;59686;51.716;7.016;2022-10-16T07:26:36;2.58;;;1.58;;
71836;SDS011;59686;51.716;7.016;2022-10-16T07:29:04;2.42;;;1.80;;
71836;SDS011;59686;51.716;7.016;2022-10-16T07:31:30;1.98;;;1.52;;
71836;SDS011;59686;51.716;7.016;2022-10-16T07:33:57;2.78;;;1.70;;
71836;SDS011;59686;51.716;7.016;2022-10-16T07:36:24;2.75;;;1.55;;
71836;SDS011;59686;51.716;7.016;2022-10-16T07:38:49;2.67;;;1.70;;
71836;SDS011;59686;51.716;7.016;2022-10-16T07:41:16;2.05;;;1.65;;
71836;SDS011;59686;51.716;7.016;2022-10-16T07:43:47;3.70;;;1.70;;
71836;SDS011;59686;51.716;7.016;2022-10-16T07:46:14;3.55;;;1.55;;
71836;SDS011;59686;51.716;7.016;2022-10-16T07:48:41;2.15;;;1.60;;
71836;SDS011;59686;51.716;7.016;2022-10-16T07:51:10;2.42;;;1.73;;
71836;SDS011;59686;51.716;7.016;2022-10-16T07:53:37;2.08;;;1.75;;
71836;SDS011;59686;51.716;7.016;2022-10-16T07:56:04;2.22;;;1.55;;
71836;SDS011;59686;51.716;7.016;2022-10-16T07:58:31;2.30;;;1.85;;
71836;SDS011;59686;51.716;7.016;2022-10-16T08:00:58;4.22;;;1.83;;
71836;SDS011;59686;51.716;7.016;2022-10-16T08:03:27;3.58;;;1.85;;
71836;SDS011;59686;51.716;7.016;2022-10-16T08:05:53;2.05;;;1.67;;
71836;SDS011;59686;51.716;7.016;2022-10-16T08:08:21;6.03;;;2.70;;
71836;SDS011;59686;51.716;7.016;2022-10-16T08:10:47;5.07;;;2.50;;
71836;SDS011;59686;51.716;7.016;2022-10-16T08:13:13;3.00;;;2.17;;
71836;SDS011;59686;51.716;7.016;2022-10-16T08:15:40;6.50;;;2.75;;
71836;SDS011;59686;51.716;7.016;2022-10-16T08:18:09;4.43;;;2.88;;
71836;SDS011;59686;51.716;7.016;2022-10-16T08:20:36;3.75;;;2.47;;
71836;SDS011;59686;51.716;7.016;2022-10-16T08:23:01;5.07;;;2.42;;
71836;SDS011;59686;51.716;7.016;2022-10-16T08:25:27;4.65;;;2.38;;
71836;SDS011;59686;51.716;7.016;2022-10-16T08:27:54;3.90;;;2.00;;
71836;SDS011;59686;51.716;7.016;2022-10-16T08:30:20;4.55;;;2.42;;
71836;SDS011;59686;51.716;7.016;2022-10-16T08:32:47;6.07;;;2.30;;
71836;SDS011;59686;51.716;7.016;2022-10-16T08:35:13;3.85;;;2.20;;
71836;SDS011;59686;51.716;7.016;2022-10-16T08:37:39;4.30;;;2.53;;
71836;SDS011;59686;51.716;7.016;2022-10-16T08:40:06;5.18;;;2.22;;
71836;SDS011;59686;51.716;7.016;2022-10-16T08:42:44;4.10;;;2.00;;
71836;SDS011;59686;51.716;7.016;2022-10-16T08:48:10;4.03;;;1.90;;
71836;SDS011;59686;51.716;7.016;2022-10-16T08:50:52;3.03;;;1.75;;
71836;SDS011;59686;51.716;7.016;2022-10-16T08:53:24;4.93;;;2.00;;
71836;SDS011;59686;51.716;7.016;2022-10-16T08:56:05;4.00;;;1.90;;
71836;SDS011;59686;51.716;7.016;2022-10-16T08:58:32;6.05;;;2.10;;
71836;SDS011;59686;51.716;7.016;2022-10-16T09:00:59;3.72;;;2.03;;
71836;SDS011;59686;51.716;7.016;2022-10-16T09:14:15;3.47;;;1.70;;
71836;SDS011;59686;51.716;7.016;2022-10-16T09:26:03;2.05;;;1.60;;
71836;SDS011;59686;51.716;7.016;2022-10-16T09:28:34;2.10;;;1.60;;
71836;SDS011;59686;51.716;7.016;2022-10-16T09:31:00;3.63;;;1.60;;
71836;SDS011;59686;51.716;7.016;2022-10-16T09:33:28;3.25;;;1.65;;
71836;SDS011;59686;51.716;7.016;2022-10-16T09:35:57;3.78;;;1.55;;
71836;SDS011;59686;51.716;7.016;2022-10-16T09:40:53;4.07;;;1.50;;
71836;SDS011;59686;51.716;7.016;2022-10-16T09:48:53;1.58;;;1.25;;
71836;SDS011;59686;51.716;7.016;2022-10-16T09:51:21;2.15;;;1.50;;
71836;SDS011;59686;51.716;7.016;2022-10-16T09:54:20;2.33;;;1.70;;
71836;SDS011;59686;51.716;7.016;2022-10-16T09:56:45;5.63;;;1.60;;
71836;SDS011;59686;51.716;7.016;2022-10-16T09:59:15;2.25;;;1.63;;
71836;SDS011;59686;51.716;7.016;2022-10-16T10:01:46;3.70;;;1.60;;
71836;SDS011;59686;51.716;7.016;2022-10-16T10:04:20;3.45;;;1.38;;
71836;SDS011;59686;51.716;7.016;2022-10-16T10:06:53;3.47;;;1.50;;
71836;SDS011;59686;51.716;7.016;2022-10-16T10:17:12;3.00;;;1.33;;
71836;SDS011;59686;51.716;7.016;2022-10-16T10:19:56;2.92;;;1.40;;
71836;SDS011;59686;51.716;7.016;2022-10-16T10:27:42;1.73;;;1.40;;
71836;SDS011;59686;51.716;7.016;2022-10-16T10:30:34;2.45;;;1.30;;
71836;SDS011;59686;51.716;7.016;2022-10-16T10:35:59;2.90;;;1.20;;
71836;SDS011;59686;51.716;7.016;2022-10-16T10:55:02;1.73;;;1.30;;
71836;SDS011;59686;51.716;7.016;2022-10-16T10:57:44;5.47;;;1.48;;
71836;SDS011;59686;51.716;7.016;2022-10-16T11:03:19;3.08;;;1.23;;
71836;SDS011;59686;51.716;7.016;2022-10-16T11:05:56;2.28;;;1.25;;
71836;SDS011;59686;51.716;7.016;2022-10-16T11:09:09;2.90;;;1.05;;
71836;SDS011;59686;51.716;7.016;2022-10-16T11:11:31;3.60;;;1.60;;
71836;SDS011;59686;51.716;7.016;2022-10-16T11:14:14;2.97;;;1.17;;
71836;SDS011;59686;51.716;7.016;2022-10-16T11:16:50;3.85;;;1.27;;
71836;SDS011;59686;51.716;7.016;2022-10-16T11:24:58;3.72;;;1.40;;
71836;SDS011;59686;51.716;7.016;2022-10-16T11:27:34;2.85;;;1.42;;
71836;SDS011;59686;51.716;7.016;2022-10-16T11:30:05;3.08;;;1.20;;
71836;SDS011;59686;51.716;7.016;2022-10-16T11:38:07;3.88;;;1.52;;
71836;SDS011;59686;51.716;7.016;2022-10-16T11:40:41;2.40;;;1.30;;
71836;SDS011;59686;51.716;7.016;2022-10-16T11:43:13;3.05;;;1.42;;
71836;SDS011;59686;51.716;7.016;2022-10-16T11:45:46;3.90;;;1.27;;
71836;SDS011;59686;51.716;7.016;2022-10-16T11:48:30;1.65;;;1.20;;
71836;SDS011;59686;51.716;7.016;2022-10-16T11:56:11;4.10;;;1.25;;
71836;SDS011;59686;51.716;7.016;2022-10-16T11:58:57;2.55;;;1.20;;
71836;SDS011;59686;51.716;7.016;2022-10-16T12:04:22;2.10;;;1.45;;
71836;SDS011;59686;51.716;7.016;2022-10-16T12:09:34;1.98;;;1.20;;
71836;SDS011;59686;51.716;7.016;2022-10-16T12:12:03;2.88;;;1.10;;
71836;SDS011;59686;51.716;7.016;2022-10-16T12:17:00;2.97;;;1.20;;
71836;SDS011;59686;51.716;7.016;2022-10-16T12:19:59;1.88;;;1.17;;
71836;SDS011;59686;51.716;7.016;2022-10-16T12:22:50;3.80;;;1.42;;
71836;SDS011;59686;51.716;7.016;2022-10-16T12:25:40;2.60;;;1.10;;
71836;SDS011;59686;51.716;7.016;2022-10-16T12:30:40;2.60;;;1.27;;
71836;SDS011;59686;51.716;7.016;2022-10-16T12:35:54;3.05;;;1.30;;
71836;SDS011;59686;51.716;7.016;2022-10-16T12:38:21;4.57;;;1.30;;
71836;SDS011;59686;51.716;7.016;2022-10-16T12:43:37;7.50;;;1.50;;
71836;SDS011;59686;51.716;7.016;2022-10-16T12:48:33;2.45;;;1.30;;
71836;SDS011;59686;51.716;7.016;2022-10-16T12:51:22;4.35;;;1.50;;
71836;SDS011;59686;51.716;7.016;2022-10-16T12:56:52;2.75;;;1.10;;
71836;SDS011;59686;51.716;7.016;2022-10-16T12:59:45;2.25;;;1.17;;
71836;SDS011;59686;51.716;7.016;2022-10-16T13:02:51;4.38;;;1.60;;
71836;SDS011;59686;51.716;7.016;2022-10-16T13:05:34;5.93;;;1.55;;
71836;SDS011;59686;51.716;7.016;2022-10-16T13:11:17;3.15;;;1.38;;
71836;SDS011;59686;51.716;7.016;2022-10-16T13:14:03;2.00;;;1.20;;
71836;SDS011;59686;51.716;7.016;2022-10-16T13:16:49;2.83;;;1.40;;
71836;SDS011;59686;51.716;7.016;2022-10-16T13:25:22;1.88;;;1.10;;
71836;SDS011;59686;51.716;7.016;2022-10-16T13:28:03;3.50;;;1.40;;
71836;SDS011;59686;51.716;7.016;2022-10-16T13:30:33;2.40;;;1.23;;
71836;SDS011;59686;51.716;7.016;2022-10-16T13:35:48;2.92;;;1.27;;
71836;SDS011;59686;51.716;7.016;2022-10-16T13:38:17;3.35;;;1.50;;
71836;SDS011;59686;51.716;7.016;2022-10-16T13:40:48;4.55;;;1.25;;
71836;SDS011;59686;51.716;7.016;2022-10-16T13:43:24;7.03;;;1.33;;
71836;SDS011;59686;51.716;7.016;2022-10-16T13:46:02;3.63;;;1.30;;
71836;SDS011;59686;51.716;7.016;2022-10-16T13:48:30;4.07;;;1.33;;
71836;SDS011;59686;51.716;7.016;2022-10-16T13:51:13;2.53;;;1.10;;
71836;SDS011;59686;51.716;7.016;2022-10-16T13:53:40;3.40;;;1.20;;
71836;SDS011;59686;51.716;7.016;2022-10-16T13:56:09;3.55;;;1.10;;
71836;SDS011;59686;51.716;7.016;2022-10-16T13:58:36;1.95;;;0.95;;
71836;SDS011;59686;51.716;7.016;2022-10-16T14:01:03;2.88;;;1.10;;
71836;SDS011;59686;51.716;7.016;2022-10-16T14:03:37;3.50;;;1.48;;
71836;SDS011;59686;51.716;7.016;2022-10-16T14:06:04;2.78;;;1.08;;
71836;SDS011;59686;51.716;7.016;2022-10-16T14:08:36;2.55;;;1.13;;
71836;SDS011;59686;51.716;7.016;2022-10-16T14:11:09;3.08;;;1.15;;
71836;SDS011;59686;51.716;7.016;2022-10-16T14:13:53;3.70;;;1.10;;
71836;SDS011;59686;51.716;7.016;2022-10-16T14:16:24;4.38;;;1.20;;
71836;SDS011;59686;51.716;7.016;2022-10-16T14:18:58;5.38;;;1.10;;
71836;SDS011;59686;51.716;7.016;2022-10-16T14:21:26;5.18;;;1.23;;
71836;SDS011;59686;51.716;7.016;2022-10-16T14:23:53;4.63;;;1.38;;
71836;SDS011;59686;51.716;7.016;2022-10-16T14:26:20;3.30;;;1.20;;
71836;SDS011;59686;51.716;7.016;2022-10-16T14:28:48;6.40;;;1.13;;
71836;SDS011;59686;51.716;7.016;2022-10-16T14:33:58;5.40;;;1.45;;
71836;SDS011;59686;51.716;7.016;2022-10-16T14:36:25;3.72;;;1.33;;
71836;SDS011;59686;51.716;7.016;2022-10-16T14:39:02;2.40;;;1.13;;
71836;SDS011;59686;51.716;7.016;2022-10-16T14:41:40;4.15;;;1.30;;
71836;SDS011;59686;51.716;7.016;2022-10-16T14:44:09;2.95;;;1.23;;
71836;SDS011;59686;51.716;7.016;2022-10-16T14:46:37;1.65;;;1.23;;
71836;SDS011;59686;51.716;7.016;2022-10-16T14:51:35;2.83;;;1.10;;
71836;SDS011;59686;51.716;7.016;2022-10-16T14:54:15;2.42;;;1.20;;
71836;SDS011;59686;51.716;7.016;2022-10-16T14:56:47;3.97;;;1.30;;
71836;SDS011;59686;51.716;7.016;2022-10-16T15:01:49;6.07;;;1.42;;
71836;SDS011;59686;51.716;7.016;2022-10-16T15:04:15;5.28;;;1.40;;
71836;SDS011;59686;51.716;7.016;2022-10-16T15:06:46;3.13;;;1.20;;
71836;SDS011;59686;51.716;7.016;2022-10-16T15:09:12;1.85;;;1.25;;
71836;SDS011;59686;51.716;7.016;2022-10-16T15:11:38;4.32;;;1.17;;
71836;SDS011;59686;51.716;7.016;2022-10-16T15:14:04;2.83;;;1.38;;
71836;SDS011;59686;51.716;7.016;2022-10-16T15:18:59;3.65;;;1.27;;
71836;SDS011;59686;51.716;7.016;2022-10-16T15:21:28;2.83;;;1.30;;
71836;SDS011;59686;51.716;7.016;2022-10-16T15:23:56;2.70;;;1.33;;
71836;SDS011;59686;51.716;7.016;2022-10-16T15:26:27;2.75;;;1.23;;
71836;SDS011;59686;51.716;7.016;2022-10-16T15:28:54;5.57;;;1.27;;
71836;SDS011;59686;51.716;7.016;2022-10-16T15:31:20;1.73;;;1.33;;
71836;SDS011;59686;51.716;7.016;2022-10-16T15:33:48;4.05;;;1.25;;
71836;SDS011;59686;51.716;7.016;2022-10-16T15:36:24;3.13;;;1.23;;
71836;SDS011;59686;51.716;7.016;2022-10-16T15:38:50;3.33;;;1.35;;
71836;SDS011;59686;51.716;7.016;2022-10-16T15:41:16;2.88;;;1.55;;
71836;SDS011;59686;51.716;7.016;2022-10-16T15:43:42;5.60;;;1.60;;
71836;SDS011;59686;51.716;7.016;2022-10-16T15:46:09;3.75;;;1.40;;
71836;SDS011;59686;51.716;7.016;2022-10-16T15:48:36;29.08;;;3.13;;
71836;SDS011;59686;51.716;7.016;2022-10-16T15:51:06;30.48;;;3.47;;
71836;SDS011;59686;51.716;7.016;2022-10-16T15:53:32;25.30;;;3.83;;
71836;SDS011;59686;51.716;7.016;2022-10-16T15:56:05;19.20;;;3.90;;
71836;SDS011;59686;51.716;7.016;2022-10-16T15:58:32;25.00;;;3.55;;
71836;SDS011;59686;51.716;7.016;2022-10-16T16:00:58;21.55;;;3.15;;
71836;SDS011;59686;51.716;7.016;2022-10-16T16:03:29;22.25;;;3.08;;
71836;SDS011;59686;51.716;7.016;2022-10-16T16:05:55;15.32;;;3.08;;
71836;SDS011;59686;51.716;7.016;2022-10-16T16:08:21;15.50;;;3.03;;
71836;SDS011;59686;51.716;7.016;2022-10-16T16:10:59;19.20;;;3.67;;
71836;SDS011;59686;51.716;7.016;2022-10-16T16:13:27;13.25;;;2.85;;
71836;SDS011;59686;51.716;7.016;2022-10-16T16:15:52;17.48;;;2.95;;
71836;SDS011;59686;51.716;7.016;2022-10-16T16:18:18;17.55;;;2.80;;
71836;SDS011;59686;51.716;7.016;2022-10-16T16:20:44;15.00;;;2.80;;
71836;SDS011;59686;51.716;7.016;2022-10-16T16:23:09;11.73;;;3.25;;
71836;SDS011;59686;51.716;7.016;2022-10-16T16:25:42;9.80;;;3.00;;
71836;SDS011;59686;51.716;7.016;2022-10-16T16:28:08;9.32;;;3.30;;
71836;SDS011;59686;51.716;7.016;2022-10-16T16:30:35;11.30;;;3.13;;
71836;SDS011;59686;51.716;7.016;2022-10-16T16:33:02;9.43;;;3.22;;
71836;SDS011;59686;51.716;7.016;2022-10-16T16:35:28;14.95;;;3.17;;
71836;SDS011;59686;51.716;7.016;2022-10-16T16:37:54;10.38;;;3.20;;
71836;SDS011;59686;51.716;7.016;2022-10-16T16:40:19;12.98;;;3.88;;
71836;SDS011;59686;51.716;7.016;2022-10-16T16:42:47;7.57;;;3.70;;
71836;SDS011;59686;51.716;7.016;2022-10-16T16:45:13;5.82;;;3.05;;
71836;SDS011;59686;51.716;7.016;2022-10-16T16:47:39;9.70;;;4.05;;
71836;SDS011;59686;51.716;7.016;2022-10-16T16:50:05;7.80;;;3.90;;
71836;SDS011;59686;51.716;7.016;2022-10-16T16:52:32;7.72;;;3.90;;
71836;SDS011;59686;51.716;7.016;2022-10-16T16:54:58;6.82;;;3.80;;
71836;SDS011;59686;51.716;7.016;2022-10-16T16:57:24;5.60;;;3.15;;
71836;SDS011;59686;51.716;7.016;2022-10-16T16:59:50;7.05;;;3.20;;
71836;SDS011;59686;51.716;7.016;2022-10-16T17:02:16;8.63;;;3.40;;
71836;SDS011;59686;51.716;7.016;2022-10-16T17:07:13;8.20;;;4.25;;
71836;SDS011;59686;51.716;7.016;2022-10-16T17:09:38;6.50;;;3.72;;
71836;SDS011;59686;51.716;7.016;2022-10-16T17:12:04;5.55;;;3.45;;
71836;SDS011;59686;51.716;7.016;2022-10-16T17:14:30;6.90;;;3.88;;
71836;SDS011;59686;51.716;7.016;2022-10-16T17:16:55;9.60;;;3.60;;
71836;SDS011;59686;51.716;7.016;2022-10-16T17:19:21;8.52;;;3.70;;
71836;SDS011;59686;51.716;7.016;2022-10-16T17:21:50;7.10;;;3.53;;